Thorco Crystal — V2BP9 — position and weather

sailwx.info

Track history (hours):
 
Tides and Currents Weather Stations Pressure Air Temp Water Temp Dewpoint Dewpoint Depression Visibility Wind Speed Wind Dir Waves Ship Positions

Thorco Crystal

Last reported at 2014-Jul-26 17:31 UTC. Time now 2014-Jul-28 22:38 UTC.
Position N 01°09' E 103°45'.

Length 145 m; draft 6 m.

Type: Cargo ship. MMSI: 304736000.

Date/timePositionNaut miles runAvg speedWind from/ knotsBaromVisibWave heightAir tempDewpointWater temp
2014-Jul-26 17:31N 01°09' E 103°45'9 8.9
2014-Jul-26 16:33N 01°13' E 103°53'3 2.6
2014-Jul-26 15:31N 01°16' E 103°53'0 0.1
2014-Jul-26 14:31N 01°16' E 103°53'0 0.1
2014-Jul-26 13:31N 01°15' E 103°53'0 0.0
2014-Jul-26 12:31N 01°15' E 103°53'0 0.0
2014-Jul-26 11:28N 01°15' E 103°53'0 0.1
2014-Jul-26 10:31N 01°15' E 103°53'0 0.0
2014-Jul-26 09:31N 01°16' E 103°53'0 0.1
2014-Jul-26 08:31N 01°16' E 103°53'0 0.0
2014-Jul-26 07:31N 01°16' E 103°53'0 0.0
2014-Jul-26 06:31N 01°16' E 103°53'0 0.0
2014-Jul-26 05:31N 01°16' E 103°53'0 0.0
2014-Jul-26 04:31N 01°16' E 103°53'0 0.0
2014-Jul-26 03:31N 01°16' E 103°53'0 0.1
2014-Jul-26 02:31N 01°15' E 103°53'0 0.1
2014-Jul-26 01:31N 01°15' E 103°53'0 0.0
2014-Jul-26 00:31N 01°15' E 103°53'0 0.0
2014-Jul-25 23:28N 01°15' E 103°53'0 0.2
2014-Jul-25 22:33N 01°15' E 103°53'5 4.6
2014-Jul-25 21:33N 01°15' E 103°58'1210.3
2014-Jul-25 20:26N 01°17' E 104°09'  
Track history (hours):
 
Tides and Currents Weather Stations Pressure Air Temp Water Temp Dewpoint Dewpoint Depression Visibility Wind Speed Wind Dir Waves Ship Positions

Thorco Crystal

Last reported at 2014-Jul-26 17:31 UTC. Time now 2014-Jul-28 22:38 UTC.
Position N 01°09' E 103°45'.

Length 145 m; draft 6 m.

Type: Cargo ship. MMSI: 304736000.

Date/timePositionNaut miles runAvg speedWind from/ knotsBaromVisibWave heightAir tempDewpointWater temp
2014-Jul-26 17:31N 01°09' E 103°45'9 8.9
2014-Jul-26 16:33N 01°13' E 103°53'3 2.6
2014-Jul-26 15:31N 01°16' E 103°53'0 0.1
2014-Jul-26 14:31N 01°16' E 103°53'0 0.1
2014-Jul-26 13:31N 01°15' E 103°53'0 0.0
2014-Jul-26 12:31N 01°15' E 103°53'0 0.0
2014-Jul-26 11:28N 01°15' E 103°53'0 0.1
2014-Jul-26 10:31N 01°15' E 103°53'0 0.0
2014-Jul-26 09:31N 01°16' E 103°53'0 0.1
2014-Jul-26 08:31N 01°16' E 103°53'0 0.0
2014-Jul-26 07:31N 01°16' E 103°53'0 0.0
2014-Jul-26 06:31N 01°16' E 103°53'0 0.0
2014-Jul-26 05:31N 01°16' E 103°53'0 0.0
2014-Jul-26 04:31N 01°16' E 103°53'0 0.0
2014-Jul-26 03:31N 01°16' E 103°53'0 0.1
2014-Jul-26 02:31N 01°15' E 103°53'0 0.1
2014-Jul-26 01:31N 01°15' E 103°53'0 0.0
2014-Jul-26 00:31N 01°15' E 103°53'0 0.0
2014-Jul-25 23:28N 01°15' E 103°53'0 0.2
2014-Jul-25 22:33N 01°15' E 103°53'5 4.6
2014-Jul-25 21:33N 01°15' E 103°58'1210.3
2014-Jul-25 20:26N 01°17' E 104°09'  

Dump ship's entire track history